Terminal Aerodrome Forecast
Issued by NWS Pueblo, CO

Home | Current Version | Previous Version | Text Only | Print | Product List | Glossary On
Versions: 1 2 3 4 5 6 7 8 9 10 11 12 13 14 15 16 17 18 19 20 21 22 23 24 25 26 27 28 29 30 31 32
000
FTUS45 KPUB 010520
TAFCOS
TAF
KCOS 010520Z 0106/0206 34009KT P6SM FEW070 BKN110
     FM010900 36005KT P6SM SCT110 SCT150
     FM011600 15007KT P6SM SCT090 SCT150
     FM012100 14009KT P6SM VCTS SCT070CB BKN110
     FM020000 34008KT P6SM VCTS SCT070CB BKN110=

USA.gov is the U.S. government's official web portal to all federal, state and local government web resources and services.